East West Aircraft has several offices across the USA. Find below the main offices with information on the nearest airstrips.

Naples Municipal Airport

Available data for KAPF from the past 2 hours
NAPLES MUNICIPAL, FL
Metar
KAPF 181053Z 03006KT 10SM CLR 23/22 A3001 RMK AO2 SLP160 T02330222

10:53 UTC

Wind: 30° 6kt

Visibility: 10 SM

Sky:

Temp: 23 deg C / 73.4 deg F

Dewpoint: 22 deg C / 71.6 deg F

Pressure: 30.01 inHg

TAF
KAPF 180855Z 1809/1906 05006KT P6SM SCT025 BKN050 FM181700 02009KT P6SM VCSH SCT025 BKN035 FM190200 04007KT P6SM SCT025 BKN050 PROB30 1902/1906 6SM SHRA SCT025 BKN035
Pireps (2)
ARP UAL1638 2631N 08146W 1048 F340 TB LGT-MDT TURB RM B739 OV RSW BUMPY RIDE UP TO FL350
RSW UA /OV RSW/TM 1000/FL330/TP DC10/TB LGT CHOP/RM DURC FL330-FL340 -ZMAMX

Hillsboro Airport

Available data for KHIO from the past 2 hours
HILLSBORO/PORTLD, OR
Metar
KHIO 181053Z AUTO 00000KT 4SM BR OVC015 09/09 A3003 RMK AO2 SLP169 T00940089

10:53 UTC

Wind: 0° 0kt

Visibility: 4 SM

Sky: OVC 1500 ft

Temp: 9 deg C / 48.2 deg F

Dewpoint: 9 deg C / 48.2 deg F

Pressure: 30.03 inHg

TAF
KHIO 180927Z 1809/1906 VRB03KT 3SM BR FEW002 BKN025 OVC040 FM181600 17011G20KT 5SM -RA BR SCT012 OVC018 FM182100 18015G22KT P6SM -SHRA SCT022 BKN035 FM190100 18018G25KT P6SM SCT015 BKN025